Time;durP1;ratioP1;P1;durP2;ratioP2;P2;SDS_P1;SDS_P2;PMS_P1;PMS_P2;Temp;Humidity;BMP_temperature;BMP_pressure;BME280_temperature;BME280_humidity;BME280_pressure;Samples;Min_cycle;Max_cycle;Signal;HPM_P1;HPM_P2
2020/02/13 00:02:46;;;;;;;4.9;2;;;;;;;2.25;89.5332;95602.76;;;;
2020/02/13 00:10:11;;;;;;;5.4;1.65;;;;;;;2.36;89.89063;95599.69;;;;
2020/02/13 00:11:18;;;;;;;5.4;1.65;;;;;;;2.36;89.89063;95599.69;;;;
2020/02/13 00:13:31;;;;;;;5.4;1.65;;;;;;;2.36;89.89063;95599.69;;;;
2020/02/13 00:14:56;;;;;;;2.4;1.4;;;;;;;2.31;89.9541;95590.47;;;;
2020/02/13 00:16:37;;;;;;;2.4;1.4;;;;;;;2.31;89.9541;95590.47;;;;
2020/02/13 00:17:44;;;;;;;2.4;1.4;;;;;;;2.31;89.9541;95590.47;;;;
2020/02/13 00:18:51;;;;;;;2.4;1.4;;;;;;;2.31;89.9541;95590.47;;;;
2020/02/13 00:20:02;;;;;;;2.4;1.4;;;;;;;2.31;89.9541;95590.47;;;;
2020/02/13 00:27:08;;;;;;;3.45;1.35;;;;;;;2.26;90.11133;95578.61;;;;
2020/02/13 00:28:17;;;;;;;3.45;1.35;;;;;;;2.26;90.11133;95578.61;;;;
2020/02/13 00:35:08;;;;;;;3.45;1.35;;;;;;;2.26;90.11133;95578.61;;;;
2020/02/13 00:40:02;;;;;;;4.45;1.6;;;;;;;2.12;90.28809;95584.29;;;;
2020/02/13 00:41:12;;;;;;;4.45;1.6;;;;;;;2.12;90.28809;95584.29;;;;
2020/02/13 00:42:28;;;;;;;4.45;1.6;;;;;;;2.12;90.28809;95584.29;;;;
2020/02/13 00:43:36;;;;;;;4.45;1.6;;;;;;;2.12;90.28809;95584.29;;;;
2020/02/13 00:44:48;;;;;;;4.45;1.6;;;;;;;2.12;90.28809;95584.29;;;;
2020/02/13 00:45:58;;;;;;;3.25;1.6;;;;;;;2.18;90.52148;95587.55;;;;
2020/02/13 00:47:04;;;;;;;3.25;1.6;;;;;;;2.18;90.52148;95587.55;;;;
2020/02/13 00:48:09;;;;;;;3.25;1.6;;;;;;;2.18;90.52148;95587.55;;;;
2020/02/13 00:49:19;;;;;;;3.25;1.6;;;;;;;2.18;90.52148;95587.55;;;;
2020/02/13 00:50:26;;;;;;;3.25;1.6;;;;;;;2.18;90.52148;95587.55;;;;
2020/02/13 00:51:35;;;;;;;3.25;1.6;;;;;;;2.18;90.52148;95587.55;;;;
2020/02/13 00:52:46;;;;;;;3.25;1.6;;;;;;;2.18;90.52148;95587.55;;;;
2020/02/13 00:53:56;;;;;;;3.25;1.6;;;;;;;2.18;90.52148;95587.55;;;;
2020/02/13 00:55:05;;;;;;;3.25;1.6;;;;;;;2.18;90.52148;95587.55;;;;
2020/02/13 00:56:13;;;;;;;2.5;1.6;;;;;;;2.17;90.55078;95585.91;;;;
2020/02/13 01:02:50;;;;;;;2.5;1.6;;;;;;;2.17;90.55078;95585.91;;;;
2020/02/13 01:04:08;;;;;;;2.5;1.6;;;;;;;2.17;90.55078;95585.91;;;;
2020/02/13 01:05:50;;;;;;;2.5;1.6;;;;;;;2.17;90.55078;95585.91;;;;
2020/02/13 01:08:04;;;;;;;2.650001;1.3;;;;;;;2.29;90.72266;95582.23;;;;
2020/02/13 01:09:16;;;;;;;2.650001;1.3;;;;;;;2.29;90.72266;95582.23;;;;
2020/02/13 01:10:55;;;;;;;2.650001;1.3;;;;;;;2.29;90.72266;95582.23;;;;
2020/02/13 01:12:03;;;;;;;2.650001;1.3;;;;;;;2.29;90.72266;95582.23;;;;
2020/02/13 01:13:13;;;;;;;2.650001;1.3;;;;;;;2.29;90.72266;95582.23;;;;
2020/02/13 01:14:28;;;;;;;2.650001;1.3;;;;;;;2.29;90.72266;95582.23;;;;
2020/02/13 01:21:23;;;;;;;4.300001;1.5;;;;;;;2.2;90.5166;95579.72;;;;
2020/02/13 01:22:45;;;;;;;4.300001;1.5;;;;;;;2.2;90.5166;95579.72;;;;
2020/02/13 01:23:53;;;;;;;4.300001;1.5;;;;;;;2.2;90.5166;95579.72;;;;
2020/02/13 01:25:07;;;;;;;4.300001;1.5;;;;;;;2.2;90.5166;95579.72;;;;
2020/02/13 01:26:18;;;;;;;4.300001;1.5;;;;;;;2.2;90.5166;95579.72;;;;
2020/02/13 01:27:36;;;;;;;4.300001;1.5;;;;;;;2.2;90.5166;95579.72;;;;
2020/02/13 01:29:15;;;;;;;4.75;1.55;;;;;;;2.1;90.74414;95566.33;;;;
2020/02/13 01:30:53;;;;;;;4.75;1.55;;;;;;;2.1;90.74414;95566.33;;;;
2020/02/13 01:37:07;;;;;;;4.75;1.55;;;;;;;2.1;90.74414;95566.33;;;;
2020/02/13 01:38:07;;;;;;;4.75;1.55;;;;;;;2.1;90.74414;95566.33;;;;
2020/02/13 01:39:09;;;;;;;4.05;1.5;;;;;;;1.97;90.8623;95556.75;;;;
2020/02/13 01:40:18;;;;;;;4.05;1.5;;;;;;;1.97;90.8623;95556.75;;;;
2020/02/13 01:41:18;;;;;;;4.05;1.5;;;;;;;1.97;90.8623;95556.75;;;;
2020/02/13 01:42:19;;;;;;;4.05;1.5;;;;;;;1.97;90.8623;95556.75;;;;
2020/02/13 01:43:19;;;;;;;4.05;1.5;;;;;;;1.97;90.8623;95556.75;;;;
2020/02/13 01:44:20;;;;;;;4.05;1.5;;;;;;;1.97;90.8623;95556.75;;;;
2020/02/13 01:45:21;;;;;;;4.05;1.5;;;;;;;1.97;90.8623;95556.75;;;;
2020/02/13 01:46:21;;;;;;;4.05;1.5;;;;;;;1.97;90.8623;95556.75;;;;
2020/02/13 01:47:22;;;;;;;4.05;1.5;;;;;;;1.97;90.8623;95556.75;;;;
2020/02/13 01:48:22;;;;;;;4.05;1.5;;;;;;;1.97;90.8623;95556.75;;;;
2020/02/13 01:49:23;;;;;;;4;1.35;;;;;;;1.99;91.16211;95545.35;;;;
2020/02/13 01:50:23;;;;;;;4;1.35;;;;;;;1.99;91.16211;95545.35;;;;
2020/02/13 01:51:24;;;;;;;4;1.35;;;;;;;1.99;91.16211;95545.35;;;;
2020/02/13 01:52:24;;;;;;;4;1.35;;;;;;;1.99;91.16211;95545.35;;;;
2020/02/13 01:53:25;;;;;;;4;1.35;;;;;;;1.99;91.16211;95545.35;;;;
2020/02/13 01:54:25;;;;;;;4;1.35;;;;;;;1.99;91.16211;95545.35;;;;
2020/02/13 01:55:25;;;;;;;4;1.35;;;;;;;1.99;91.16211;95545.35;;;;
2020/02/13 01:56:26;;;;;;;4;1.35;;;;;;;1.99;91.16211;95545.35;;;;
2020/02/13 01:57:27;;;;;;;4;1.35;;;;;;;1.99;91.16211;95545.35;;;;
2020/02/13 01:58:27;;;;;;;4;1.35;;;;;;;1.99;91.16211;95545.35;;;;
2020/02/13 01:59:28;;;;;;;3.249999;1.4;;;;;;;1.98;91.2207;95535.27;;;;
2020/02/13 02:00:28;;;;;;;3.249999;1.4;;;;;;;1.98;91.2207;95535.27;;;;
2020/02/13 02:01:29;;;;;;;3.249999;1.4;;;;;;;1.98;91.2207;95535.27;;;;
2020/02/13 02:02:29;;;;;;;3.249999;1.4;;;;;;;1.98;91.2207;95535.27;;;;
2020/02/13 02:03:30;;;;;;;3.249999;1.4;;;;;;;1.98;91.2207;95535.27;;;;
2020/02/13 02:04:30;;;;;;;3.249999;1.4;;;;;;;1.98;91.2207;95535.27;;;;
2020/02/13 02:05:31;;;;;;;3.249999;1.4;;;;;;;1.98;91.2207;95535.27;;;;
2020/02/13 02:06:48;;;;;;;3.249999;1.4;;;;;;;1.98;91.2207;95535.27;;;;
2020/02/13 02:09:00;;;;;;;3.249999;1.4;;;;;;;1.98;91.2207;95535.27;;;;
2020/02/13 02:10:09;;;;;;;2.25;1.3;;;;;;;2.04;91.31836;95517.69;;;;
2020/02/13 02:11:33;;;;;;;2.25;1.3;;;;;;;2.04;91.31836;95517.69;;;;
2020/02/13 02:12:44;;;;;;;2.25;1.3;;;;;;;2.04;91.31836;95517.69;;;;
2020/02/13 02:14:02;;;;;;;2.25;1.3;;;;;;;2.04;91.31836;95517.69;;;;
2020/02/13 02:15:13;;;;;;;2.25;1.3;;;;;;;2.04;91.31836;95517.69;;;;
2020/02/13 02:17:23;;;;;;;2.25;1.3;;;;;;;2.04;91.31836;95517.69;;;;
2020/02/13 02:18:46;;;;;;;2.25;1.3;;;;;;;2.04;91.31836;95517.69;;;;
2020/02/13 02:19:54;;;;;;;2.25;1.3;;;;;;;2.04;91.31836;95517.69;;;;
2020/02/13 02:22:00;;;;;;;3.75;1.5;;;;;;;2.07;91.23828;95492.13;;;;
2020/02/13 02:28:21;;;;;;;3.75;1.5;;;;;;;2.07;91.23828;95492.13;;;;
2020/02/13 02:30:02;;;;;;;3.75;1.5;;;;;;;2.07;91.23828;95492.13;;;;
2020/02/13 02:32:21;;;;;;;3.75;1.5;;;;;;;2.07;91.23828;95492.13;;;;
2020/02/13 02:33:45;;;;;;;2.5;1.45;;;;;;;2.09;91.15137;95472.71;;;;
2020/02/13 02:35:26;;;;;;;2.5;1.45;;;;;;;2.09;91.15137;95472.71;;;;
2020/02/13 02:36:34;;;;;;;2.5;1.45;;;;;;;2.09;91.15137;95472.71;;;;
2020/02/13 02:37:42;;;;;;;2.5;1.45;;;;;;;2.09;91.15137;95472.71;;;;
2020/02/13 02:38:56;;;;;;;2.5;1.45;;;;;;;2.09;91.15137;95472.71;;;;
2020/02/13 02:40:35;;;;;;;2.5;1.45;;;;;;;2.09;91.15137;95472.71;;;;
2020/02/13 02:41:49;;;;;;;2.5;1.45;;;;;;;2.09;91.15137;95472.71;;;;
2020/02/13 02:43:02;;;;;;;3.75;1.4;;;;;;;1.86;90.97559;95458.59;;;;
2020/02/13 02:44:42;;;;;;;3.75;1.4;;;;;;;1.86;90.97559;95458.59;;;;
2020/02/13 02:45:51;;;;;;;3.75;1.4;;;;;;;1.86;90.97559;95458.59;;;;
2020/02/13 02:47:01;;;;;;;3.75;1.4;;;;;;;1.86;90.97559;95458.59;;;;
2020/02/13 02:48:39;;;;;;;3.75;1.4;;;;;;;1.86;90.97559;95458.59;;;;
2020/02/13 02:49:47;;;;;;;3.75;1.4;;;;;;;1.86;90.97559;95458.59;;;;
2020/02/13 02:50:54;;;;;;;3.75;1.4;;;;;;;1.86;90.97559;95458.59;;;;
2020/02/13 02:52:05;;;;;;;3.75;1.4;;;;;;;1.86;90.97559;95458.59;;;;
2020/02/13 02:53:13;;;;;;;4.15;1.6;;;;;;;1.54;90.98047;95446.01;;;;
2020/02/13 02:54:19;;;;;;;4.15;1.6;;;;;;;1.54;90.98047;95446.01;;;;
2020/02/13 02:56:33;;;;;;;4.15;1.6;;;;;;;1.54;90.98047;95446.01;;;;
2020/02/13 02:57:41;;;;;;;4.15;1.6;;;;;;;1.54;90.98047;95446.01;;;;
2020/02/13 02:59:52;;;;;;;4.15;1.6;;;;;;;1.54;90.98047;95446.01;;;;
2020/02/13 03:06:07;;;;;;;6.85;1.7;;;;;;;1.06;91.14063;95420.04;;;;
2020/02/13 03:07:07;;;;;;;6.85;1.7;;;;;;;1.06;91.14063;95420.04;;;;
2020/02/13 03:08:08;;;;;;;6.85;1.7;;;;;;;1.06;91.14063;95420.04;;;;
2020/02/13 03:09:08;;;;;;;6.85;1.7;;;;;;;1.06;91.14063;95420.04;;;;
2020/02/13 03:10:09;;;;;;;6.85;1.7;;;;;;;1.06;91.14063;95420.04;;;;
2020/02/13 03:11:09;;;;;;;6.85;1.7;;;;;;;1.06;91.14063;95420.04;;;;
2020/02/13 03:12:10;;;;;;;6.85;1.7;;;;;;;1.06;91.14063;95420.04;;;;
2020/02/13 03:13:10;;;;;;;6.85;1.7;;;;;;;1.06;91.14063;95420.04;;;;
2020/02/13 03:14:10;;;;;;;4.4;1.7;;;;;;;0.7;91.40625;95399.07;;;;
2020/02/13 03:15:11;;;;;;;4.4;1.7;;;;;;;0.7;91.40625;95399.07;;;;
2020/02/13 03:16:11;;;;;;;4.4;1.7;;;;;;;0.7;91.40625;95399.07;;;;
2020/02/13 03:17:12;;;;;;;4.4;1.7;;;;;;;0.7;91.40625;95399.07;;;;
2020/02/13 03:18:12;;;;;;;4.4;1.7;;;;;;;0.7;91.40625;95399.07;;;;
2020/02/13 03:19:13;;;;;;;4.4;1.7;;;;;;;0.7;91.40625;95399.07;;;;
2020/02/13 03:20:13;;;;;;;4.4;1.7;;;;;;;0.7;91.40625;95399.07;;;;
2020/02/13 03:21:14;;;;;;;4.4;1.7;;;;;;;0.7;91.40625;95399.07;;;;
2020/02/13 03:22:14;;;;;;;4.4;1.7;;;;;;;0.7;91.40625;95399.07;;;;
2020/02/13 03:23:15;;;;;;;4.4;1.7;;;;;;;0.7;91.40625;95399.07;;;;
2020/02/13 03:24:15;;;;;;;4.4;1.7;;;;;;;0.7;91.40625;95399.07;;;;
2020/02/13 03:25:16;;;;;;;2.35;1.55;;;;;;;0.29;91.62109;95384.19;;;;
2020/02/13 03:26:16;;;;;;;2.35;1.55;;;;;;;0.29;91.62109;95384.19;;;;
2020/02/13 03:27:17;;;;;;;2.35;1.55;;;;;;;0.29;91.62109;95384.19;;;;
2020/02/13 03:28:17;;;;;;;2.35;1.55;;;;;;;0.29;91.62109;95384.19;;;;
2020/02/13 03:29:18;;;;;;;2.35;1.55;;;;;;;0.29;91.62109;95384.19;;;;
2020/02/13 03:30:18;;;;;;;2.35;1.55;;;;;;;0.29;91.62109;95384.19;;;;
2020/02/13 03:31:19;;;;;;;2.35;1.55;;;;;;;0.29;91.62109;95384.19;;;;
2020/02/13 03:32:19;;;;;;;2.35;1.55;;;;;;;0.29;91.62109;95384.19;;;;
2020/02/13 03:33:19;;;;;;;2.35;1.55;;;;;;;0.29;91.62109;95384.19;;;;
2020/02/13 03:34:20;;;;;;;2.35;1.55;;;;;;;0.29;91.62109;95384.19;;;;
2020/02/13 03:35:20;;;;;;;4.349999;1.8;;;;;;;-0.02;91.81445;95366.44;;;;
2020/02/13 03:36:21;;;;;;;4.349999;1.8;;;;;;;-0.02;91.81445;95366.44;;;;
2020/02/13 03:37:21;;;;;;;4.349999;1.8;;;;;;;-0.02;91.81445;95366.44;;;;
2020/02/13 03:38:22;;;;;;;4.349999;1.8;;;;;;;-0.02;91.81445;95366.44;;;;
2020/02/13 03:39:22;;;;;;;4.349999;1.8;;;;;;;-0.02;91.81445;95366.44;;;;
2020/02/13 03:40:23;;;;;;;4.349999;1.8;;;;;;;-0.02;91.81445;95366.44;;;;
2020/02/13 03:41:27;;;;;;;4.349999;1.8;;;;;;;-0.02;91.81445;95366.44;;;;
2020/02/13 03:42:28;;;;;;;4.349999;1.8;;;;;;;-0.02;91.81445;95366.44;;;;
2020/02/13 03:43:30;;;;;;;4.349999;1.8;;;;;;;-0.02;91.81445;95366.44;;;;
2020/02/13 03:44:30;;;;;;;4.349999;1.8;;;;;;;-0.02;91.81445;95366.44;;;;
2020/02/13 03:45:31;;;;;;;7.35;2.15;;;;;;;-0.39;91.97168;95340.99;;;;
2020/02/13 03:46:31;;;;;;;7.35;2.15;;;;;;;-0.39;91.97168;95340.99;;;;
2020/02/13 03:47:33;;;;;;;7.35;2.15;;;;;;;-0.39;91.97168;95340.99;;;;
2020/02/13 03:48:34;;;;;;;7.35;2.15;;;;;;;-0.39;91.97168;95340.99;;;;
2020/02/13 03:49:38;;;;;;;7.35;2.15;;;;;;;-0.39;91.97168;95340.99;;;;
2020/02/13 03:50:41;;;;;;;7.35;2.15;;;;;;;-0.39;91.97168;95340.99;;;;
2020/02/13 03:51:48;;;;;;;7.35;2.15;;;;;;;-0.39;91.97168;95340.99;;;;
2020/02/13 03:52:55;;;;;;;7.35;2.15;;;;;;;-0.39;91.97168;95340.99;;;;
2020/02/13 03:53:56;;;;;;;7.35;2.15;;;;;;;-0.39;91.97168;95340.99;;;;
2020/02/13 03:55:00;;;;;;;7.35;2.15;;;;;;;-0.39;91.97168;95340.99;;;;
2020/02/13 03:56:04;;;;;;;7.35;2.15;;;;;;;-0.39;91.97168;95340.99;;;;
2020/02/13 03:57:08;;;;;;;2.7;1.6;;;;;;;-0.62;92.28613;95330.32;;;;
2020/02/13 03:58:09;;;;;;;2.7;1.6;;;;;;;-0.62;92.28613;95330.32;;;;
2020/02/13 03:59:10;;;;;;;2.7;1.6;;;;;;;-0.62;92.28613;95330.32;;;;
2020/02/13 04:00:10;;;;;;;2.7;1.6;;;;;;;-0.62;92.28613;95330.32;;;;
2020/02/13 04:01:11;;;;;;;2.7;1.6;;;;;;;-0.62;92.28613;95330.32;;;;
2020/02/13 04:02:12;;;;;;;2.7;1.6;;;;;;;-0.62;92.28613;95330.32;;;;
2020/02/13 04:03:12;;;;;;;2.7;1.6;;;;;;;-0.62;92.28613;95330.32;;;;
2020/02/13 04:04:13;;;;;;;2.7;1.6;;;;;;;-0.62;92.28613;95330.32;;;;
2020/02/13 04:05:13;;;;;;;2.7;1.6;;;;;;;-0.62;92.28613;95330.32;;;;
2020/02/13 04:06:14;;;;;;;2.7;1.6;;;;;;;-0.62;92.28613;95330.32;;;;
2020/02/13 04:07:14;;;;;;;6.850001;2.1;;;;;;;-0.89;92.41309;95327.09;;;;
2020/02/13 04:08:15;;;;;;;6.850001;2.1;;;;;;;-0.89;92.41309;95327.09;;;;
2020/02/13 04:09:15;;;;;;;6.850001;2.1;;;;;;;-0.89;92.41309;95327.09;;;;
2020/02/13 04:10:15;;;;;;;6.850001;2.1;;;;;;;-0.89;92.41309;95327.09;;;;
2020/02/13 04:11:16;;;;;;;6.850001;2.1;;;;;;;-0.89;92.41309;95327.09;;;;
2020/02/13 04:12:17;;;;;;;6.850001;2.1;;;;;;;-0.89;92.41309;95327.09;;;;
2020/02/13 04:13:18;;;;;;;6.850001;2.1;;;;;;;-0.89;92.41309;95327.09;;;;
2020/02/13 04:14:19;;;;;;;6.850001;2.1;;;;;;;-0.89;92.41309;95327.09;;;;
2020/02/13 04:15:20;;;;;;;6.850001;2.1;;;;;;;-0.89;92.41309;95327.09;;;;
2020/02/13 04:16:20;;;;;;;6.850001;2.1;;;;;;;-0.89;92.41309;95327.09;;;;
2020/02/13 04:17:21;;;;;;;3.2;1.9;;;;;;;-1.07;92.6123;95311.36;;;;
2020/02/13 04:18:21;;;;;;;3.2;1.9;;;;;;;-1.07;92.6123;95311.36;;;;
2020/02/13 04:19:22;;;;;;;3.2;1.9;;;;;;;-1.07;92.6123;95311.36;;;;
2020/02/13 04:20:22;;;;;;;3.2;1.9;;;;;;;-1.07;92.6123;95311.36;;;;
2020/02/13 04:21:23;;;;;;;3.2;1.9;;;;;;;-1.07;92.6123;95311.36;;;;
2020/02/13 04:22:23;;;;;;;3.2;1.9;;;;;;;-1.07;92.6123;95311.36;;;;
2020/02/13 04:23:24;;;;;;;3.2;1.9;;;;;;;-1.07;92.6123;95311.36;;;;
2020/02/13 04:24:24;;;;;;;3.2;1.9;;;;;;;-1.07;92.6123;95311.36;;;;
2020/02/13 04:25:25;;;;;;;3.2;1.9;;;;;;;-1.07;92.6123;95311.36;;;;
2020/02/13 04:26:29;;;;;;;3.2;1.9;;;;;;;-1.07;92.6123;95311.36;;;;
2020/02/13 04:27:30;;;;;;;3.2;1.9;;;;;;;-1.07;92.6123;95311.36;;;;
2020/02/13 04:28:31;;;;;;;3.15;2.1;;;;;;;-1.29;92.79297;95297.42;;;;
2020/02/13 04:29:32;;;;;;;3.15;2.1;;;;;;;-1.29;92.79297;95297.42;;;;
2020/02/13 04:30:32;;;;;;;3.15;2.1;;;;;;;-1.29;92.79297;95297.42;;;;
2020/02/13 04:31:33;;;;;;;3.15;2.1;;;;;;;-1.29;92.79297;95297.42;;;;
2020/02/13 04:32:33;;;;;;;3.15;2.1;;;;;;;-1.29;92.79297;95297.42;;;;
2020/02/13 04:33:34;;;;;;;3.15;2.1;;;;;;;-1.29;92.79297;95297.42;;;;
2020/02/13 04:34:34;;;;;;;3.15;2.1;;;;;;;-1.29;92.79297;95297.42;;;;
2020/02/13 04:35:35;;;;;;;3.15;2.1;;;;;;;-1.29;92.79297;95297.42;;;;
2020/02/13 04:36:36;;;;;;;3.15;2.1;;;;;;;-1.29;92.79297;95297.42;;;;
2020/02/13 04:37:36;;;;;;;3.15;2.1;;;;;;;-1.29;92.79297;95297.42;;;;
2020/02/13 04:38:37;;;;;;;3.1;1.65;;;;;;;-1.4;92.98828;95296.84;;;;
2020/02/13 04:39:37;;;;;;;3.1;1.65;;;;;;;-1.4;92.98828;95296.84;;;;
2020/02/13 04:40:38;;;;;;;3.1;1.65;;;;;;;-1.4;92.98828;95296.84;;;;
2020/02/13 04:41:38;;;;;;;3.1;1.65;;;;;;;-1.4;92.98828;95296.84;;;;
2020/02/13 04:42:38;;;;;;;3.1;1.65;;;;;;;-1.4;92.98828;95296.84;;;;
2020/02/13 04:43:39;;;;;;;3.1;1.65;;;;;;;-1.4;92.98828;95296.84;;;;
2020/02/13 04:44:40;;;;;;;3.1;1.65;;;;;;;-1.4;92.98828;95296.84;;;;
2020/02/13 04:45:40;;;;;;;3.1;1.65;;;;;;;-1.4;92.98828;95296.84;;;;
2020/02/13 04:46:41;;;;;;;3.1;1.65;;;;;;;-1.4;92.98828;95296.84;;;;
2020/02/13 04:47:41;;;;;;;3.1;1.65;;;;;;;-1.4;92.98828;95296.84;;;;
2020/02/13 04:48:42;;;;;;;3.1;1.65;;;;;;;-1.4;92.98828;95296.84;;;;
2020/02/13 04:49:42;;;;;;;3.1;1.65;;;;;;;-1.4;92.98828;95296.84;;;;
2020/02/13 04:50:43;;;;;;;3.1;1.65;;;;;;;-1.4;92.98828;95296.84;;;;
2020/02/13 04:51:43;;;;;;;3.1;1.65;;;;;;;-1.4;92.98828;95296.84;;;;
2020/02/13 04:52:44;;;;;;;3.1;1.65;;;;;;;-1.4;92.98828;95296.84;;;;
2020/02/13 04:53:44;;;;;;;3.1;1.65;;;;;;;-1.4;92.98828;95296.84;;;;
2020/02/13 04:54:44;;;;;;;3.1;1.65;;;;;;;-1.4;92.98828;95296.84;;;;
2020/02/13 04:55:45;;;;;;;3.1;1.65;;;;;;;-1.4;92.98828;95296.84;;;;
2020/02/13 04:56:45;;;;;;;3.1;1.65;;;;;;;-1.4;92.98828;95296.84;;;;
2020/02/13 04:57:46;;;;;;;3.1;1.65;;;;;;;-1.4;92.98828;95296.84;;;;
2020/02/13 04:58:46;;;;;;;3.1;1.65;;;;;;;-1.4;92.98828;95296.84;;;;
2020/02/13 04:59:47;;;;;;;3.1;1.65;;;;;;;-1.4;92.98828;95296.84;;;;
2020/02/13 05:00:48;;;;;;;4.4;1.85;;;;;;;-1.54;93.02734;95280.33;;;;
2020/02/13 05:01:48;;;;;;;4.4;1.85;;;;;;;-1.54;93.02734;95280.33;;;;
2020/02/13 05:02:49;;;;;;;4.4;1.85;;;;;;;-1.54;93.02734;95280.33;;;;
2020/02/13 05:03:49;;;;;;;4.4;1.85;;;;;;;-1.54;93.02734;95280.33;;;;
2020/02/13 05:04:49;;;;;;;4.4;1.85;;;;;;;-1.54;93.02734;95280.33;;;;
2020/02/13 05:05:50;;;;;;;4.4;1.85;;;;;;;-1.54;93.02734;95280.33;;;;
2020/02/13 05:06:51;;;;;;;4.4;1.85;;;;;;;-1.54;93.02734;95280.33;;;;
2020/02/13 05:07:51;;;;;;;4.4;1.85;;;;;;;-1.54;93.02734;95280.33;;;;
2020/02/13 05:08:52;;;;;;;4.4;1.85;;;;;;;-1.54;93.02734;95280.33;;;;
2020/02/13 05:09:52;;;;;;;4.4;1.85;;;;;;;-1.54;93.02734;95280.33;;;;
2020/02/13 05:11:33;;;;;;;4.5;1.6;;;;;;;-1.67;93.3623;95274.61;;;;
2020/02/13 05:12:52;;;;;;;4.5;1.6;;;;;;;-1.67;93.3623;95274.61;;;;
2020/02/13 05:24:59;;;;;;;5.550001;2.1;;;;;;;-1.67;93.51758;95267.99;;;;
2020/02/13 05:26:11;;;;;;;5.550001;2.1;;;;;;;-1.67;93.51758;95267.99;;;;
2020/02/13 05:27:27;;;;;;;5.550001;2.1;;;;;;;-1.67;93.51758;95267.99;;;;
2020/02/13 05:28:53;;;;;;;5.550001;2.1;;;;;;;-1.67;93.51758;95267.99;;;;
2020/02/13 05:30:17;;;;;;;5.550001;2.1;;;;;;;-1.67;93.51758;95267.99;;;;
2020/02/13 05:36:37;;;;;;;4.25;2.1;;;;;;;-1.73;93.53418;95254.6;;;;
2020/02/13 05:37:47;;;;;;;4.25;2.1;;;;;;;-1.73;93.53418;95254.6;;;;
2020/02/13 05:38:58;;;;;;;4.25;2.1;;;;;;;-1.73;93.53418;95254.6;;;;
2020/02/13 05:40:11;;;;;;;4.25;2.1;;;;;;;-1.73;93.53418;95254.6;;;;
2020/02/13 05:47:34;;;;;;;5.1;1.85;;;;;;;-1.72;93.6416;95254.85;;;;
2020/02/13 05:48:40;;;;;;;5.1;1.85;;;;;;;-1.72;93.6416;95254.85;;;;
2020/02/13 05:49:49;;;;;;;5.1;1.85;;;;;;;-1.72;93.6416;95254.85;;;;
2020/02/13 05:51:08;;;;;;;5.1;1.85;;;;;;;-1.72;93.6416;95254.85;;;;
2020/02/13 05:57:33;;;;;;;4.95;1.75;;;;;;;-1.76;93.69336;95244.34;;;;
2020/02/13 05:58:42;;;;;;;4.95;1.75;;;;;;;-1.76;93.69336;95244.34;;;;
2020/02/13 05:59:53;;;;;;;4.95;1.75;;;;;;;-1.76;93.69336;95244.34;;;;
2020/02/13 06:01:00;;;;;;;4.95;1.75;;;;;;;-1.76;93.69336;95244.34;;;;
2020/02/13 06:02:08;;;;;;;4.95;1.75;;;;;;;-1.76;93.69336;95244.34;;;;
2020/02/13 06:03:22;;;;;;;4.95;1.75;;;;;;;-1.76;93.69336;95244.34;;;;
2020/02/13 06:04:38;;;;;;;6.2;2.1;;;;;;;-1.75;93.78809;95236.24;;;;
2020/02/13 06:16:10;;;;;;;2.8;1.75;;;;;;;-1.8;93.91211;95243.8;;;;
2020/02/13 06:17:23;;;;;;;2.8;1.75;;;;;;;-1.8;93.91211;95243.8;;;;
2020/02/13 06:18:33;;;;;;;2.8;1.75;;;;;;;-1.8;93.91211;95243.8;;;;
2020/02/13 06:19:49;;;;;;;2.8;1.75;;;;;;;-1.8;93.91211;95243.8;;;;
2020/02/13 06:20:58;;;;;;;2.8;1.75;;;;;;;-1.8;93.91211;95243.8;;;;
2020/02/13 06:22:13;;;;;;;2.8;1.75;;;;;;;-1.8;93.91211;95243.8;;;;
2020/02/13 06:29:02;;;;;;;4.349999;1.85;;;;;;;-1.7;94.02637;95242.35;;;;
2020/02/13 06:30:06;;;;;;;4.349999;1.85;;;;;;;-1.7;94.02637;95242.35;;;;
2020/02/13 06:31:12;;;;;;;4.349999;1.85;;;;;;;-1.7;94.02637;95242.35;;;;
2020/02/13 06:42:36;;;;;;;4.9;2.2;;;;;;;-1.67;94.06543;95242.43;;;;
2020/02/13 06:43:46;;;;;;;4.9;2.2;;;;;;;-1.67;94.06543;95242.43;;;;
2020/02/13 06:44:54;;;;;;;4.9;2.2;;;;;;;-1.67;94.06543;95242.43;;;;
2020/02/13 06:46:09;;;;;;;4.9;2.2;;;;;;;-1.67;94.06543;95242.43;;;;
2020/02/13 06:47:17;;;;;;;4.65;2.299999;;;;;;;-1.48;94.2832;95220.97;;;;
2020/02/13 06:48:27;;;;;;;4.65;2.299999;;;;;;;-1.48;94.2832;95220.97;;;;
2020/02/13 06:50:43;;;;;;;4.65;2.299999;;;;;;;-1.48;94.2832;95220.97;;;;
2020/02/13 06:51:53;;;;;;;4.65;2.299999;;;;;;;-1.48;94.2832;95220.97;;;;
2020/02/13 06:53:02;;;;;;;4.65;2.299999;;;;;;;-1.48;94.2832;95220.97;;;;
2020/02/13 06:59:20;;;;;;;3.2;2.2;;;;;;;-1.27;94.2168;95230.98;;;;
2020/02/13 07:05:45;;;;;;;3.2;2.2;;;;;;;-1.27;94.2168;95230.98;;;;
2020/02/13 07:06:52;;;;;;;3.2;2.2;;;;;;;-1.27;94.2168;95230.98;;;;
2020/02/13 07:07:57;;;;;;;3.85;1.95;;;;;;;-0.9;94.30859;95203.05;;;;
2020/02/13 07:08:57;;;;;;;3.85;1.95;;;;;;;-0.9;94.30859;95203.05;;;;
2020/02/13 07:09:58;;;;;;;3.85;1.95;;;;;;;-0.9;94.30859;95203.05;;;;
2020/02/13 07:10:58;;;;;;;3.85;1.95;;;;;;;-0.9;94.30859;95203.05;;;;
2020/02/13 07:11:59;;;;;;;3.85;1.95;;;;;;;-0.9;94.30859;95203.05;;;;
2020/02/13 07:12:59;;;;;;;3.85;1.95;;;;;;;-0.9;94.30859;95203.05;;;;
2020/02/13 07:14:00;;;;;;;3.85;1.95;;;;;;;-0.9;94.30859;95203.05;;;;
2020/02/13 07:15:00;;;;;;;3.85;1.95;;;;;;;-0.9;94.30859;95203.05;;;;
2020/02/13 07:16:01;;;;;;;3.85;1.95;;;;;;;-0.9;94.30859;95203.05;;;;
2020/02/13 07:17:01;;;;;;;3.85;1.95;;;;;;;-0.9;94.30859;95203.05;;;;
2020/02/13 07:18:02;;;;;;;4.5;2.05;;;;;;;-0.44;94.16992;95207.65;;;;
2020/02/13 07:19:02;;;;;;;4.5;2.05;;;;;;;-0.44;94.16992;95207.65;;;;
2020/02/13 07:20:03;;;;;;;4.5;2.05;;;;;;;-0.44;94.16992;95207.65;;;;
2020/02/13 07:21:03;;;;;;;4.5;2.05;;;;;;;-0.44;94.16992;95207.65;;;;
2020/02/13 07:22:19;;;;;;;4.5;2.05;;;;;;;-0.44;94.16992;95207.65;;;;
2020/02/13 07:23:20;;;;;;;4.5;2.05;;;;;;;-0.44;94.16992;95207.65;;;;
2020/02/13 07:24:54;;;;;;;4.5;2.05;;;;;;;-0.44;94.16992;95207.65;;;;
2020/02/13 07:26:00;;;;;;;4.5;2.05;;;;;;;-0.44;94.16992;95207.65;;;;
2020/02/13 07:27:06;;;;;;;4.5;2.05;;;;;;;-0.44;94.16992;95207.65;;;;
2020/02/13 07:34:16;;;;;;;4.3;2.15;;;;;;;0.11;93.84473;95195.54;;;;
2020/02/13 07:36:31;;;;;;;4.3;2.15;;;;;;;0.11;93.84473;95195.54;;;;
2020/02/13 07:37:40;;;;;;;4.3;2.15;;;;;;;0.11;93.84473;95195.54;;;;
2020/02/13 07:38:50;;;;;;;4.3;2.15;;;;;;;0.11;93.84473;95195.54;;;;
2020/02/13 07:40:00;;;;;;;3.8;1.7;;;;;;;0.65;92.9668;95178.16;;;;
2020/02/13 07:41:09;;;;;;;3.8;1.7;;;;;;;0.65;92.9668;95178.16;;;;
2020/02/13 07:42:20;;;;;;;3.8;1.7;;;;;;;0.65;92.9668;95178.16;;;;
2020/02/13 07:44:16;;;;;;;3.8;1.7;;;;;;;0.65;92.9668;95178.16;;;;
2020/02/13 07:45:31;;;;;;;3.8;1.7;;;;;;;0.65;92.9668;95178.16;;;;
2020/02/13 07:46:44;;;;;;;3.8;1.7;;;;;;;0.65;92.9668;95178.16;;;;
2020/02/13 07:48:06;;;;;;;3.8;1.7;;;;;;;0.65;92.9668;95178.16;;;;
2020/02/13 07:49:16;;;;;;;3.8;1.7;;;;;;;0.65;92.9668;95178.16;;;;
2020/02/13 07:50:40;;;;;;;2.9;2;;;;;;;1.26;92.43066;95167;;;;
2020/02/13 07:57:12;;;;;;;2.9;2;;;;;;;1.26;92.43066;95167;;;;
2020/02/13 07:58:19;;;;;;;2.9;2;;;;;;;1.26;92.43066;95167;;;;
2020/02/13 07:59:46;;;;;;;2.9;2;;;;;;;1.26;92.43066;95167;;;;
2020/02/13 08:00:54;;;;;;;3.800001;2.2;;;;;;;1.8;91.91309;95154.54;;;;
2020/02/13 08:02:04;;;;;;;3.800001;2.2;;;;;;;1.8;91.91309;95154.54;;;;
2020/02/13 08:03:14;;;;;;;3.800001;2.2;;;;;;;1.8;91.91309;95154.54;;;;
2020/02/13 08:05:27;;;;;;;3.800001;2.2;;;;;;;1.8;91.91309;95154.54;;;;
2020/02/13 08:06:44;;;;;;;3.800001;2.2;;;;;;;1.8;91.91309;95154.54;;;;
2020/02/13 08:07:50;;;;;;;3.800001;2.2;;;;;;;1.8;91.91309;95154.54;;;;
2020/02/13 08:08:55;;;;;;;3.800001;2.2;;;;;;;1.8;91.91309;95154.54;;;;
2020/02/13 08:10:04;;;;;;;3.800001;2.2;;;;;;;1.8;91.91309;95154.54;;;;
2020/02/13 08:16:27;;;;;;;3.3;1.9;;;;;;;2.46;91.13281;95141.06;;;;
2020/02/13 08:17:44;;;;;;;3.3;1.9;;;;;;;2.46;91.13281;95141.06;;;;
2020/02/13 08:19:13;;;;;;;3.3;1.9;;;;;;;2.46;91.13281;95141.06;;;;
2020/02/13 08:25:47;;;;;;;2.45;1.95;;;;;;;3.07;90.2793;95115.55;;;;
2020/02/13 08:32:09;;;;;;;2.45;1.95;;;;;;;3.07;90.2793;95115.55;;;;
2020/02/13 08:38:30;;;;;;;3.25;1.85;;;;;;;4.44;86.78613;95082.26;;;;
2020/02/13 08:40:42;;;;;;;3.25;1.85;;;;;;;4.44;86.78613;95082.26;;;;
2020/02/13 08:52:35;;;;;;;4.350001;2.4;;;;;;;8.05;80.03223;95056.53;;;;
2020/02/13 08:53:41;;;;;;;4.350001;2.4;;;;;;;8.05;80.03223;95056.53;;;;
2020/02/13 08:54:50;;;;;;;3.75;2.3;;;;;;;11.21;74.24414;95040.83;;;;
2020/02/13 09:01:02;;;;;;;3.75;2.3;;;;;;;11.21;74.24414;95040.83;;;;
2020/02/13 09:02:13;;;;;;;3.75;2.3;;;;;;;11.21;74.24414;95040.83;;;;
2020/02/13 09:03:21;;;;;;;3.75;2.3;;;;;;;11.21;74.24414;95040.83;;;;
2020/02/13 09:04:33;;;;;;;3.2;1.9;;;;;;;12.03;73.36328;95035.05;;;;
2020/02/13 09:05:43;;;;;;;3.2;1.9;;;;;;;12.03;73.36328;95035.05;;;;
2020/02/13 09:12:10;;;;;;;3.2;1.9;;;;;;;12.03;73.36328;95035.05;;;;
2020/02/13 09:13:25;;;;;;;3.2;1.9;;;;;;;12.03;73.36328;95035.05;;;;
2020/02/13 09:15:08;;;;;;;3.2;1.9;;;;;;;12.03;73.36328;95035.05;;;;
2020/02/13 09:16:35;;;;;;;3.55;1.55;;;;;;;11.02;74.95215;95013.25;;;;
2020/02/13 09:22:55;;;;;;;3.55;1.55;;;;;;;11.02;74.95215;95013.25;;;;
2020/02/13 09:24:06;;;;;;;3.55;1.55;;;;;;;11.02;74.95215;95013.25;;;;
2020/02/13 09:25:16;;;;;;;3.55;1.55;;;;;;;11.02;74.95215;95013.25;;;;
2020/02/13 09:27:40;;;;;;;3.85;1.75;;;;;;;11.31;73.19922;94990.59;;;;
2020/02/13 09:28:47;;;;;;;3.85;1.75;;;;;;;11.31;73.19922;94990.59;;;;
2020/02/13 09:29:59;;;;;;;3.85;1.75;;;;;;;11.31;73.19922;94990.59;;;;
2020/02/13 09:31:07;;;;;;;3.85;1.75;;;;;;;11.31;73.19922;94990.59;;;;
2020/02/13 09:32:15;;;;;;;3.85;1.75;;;;;;;11.31;73.19922;94990.59;;;;
2020/02/13 09:33:28;;;;;;;3.85;1.75;;;;;;;11.31;73.19922;94990.59;;;;
2020/02/13 09:34:43;;;;;;;3.85;1.75;;;;;;;11.31;73.19922;94990.59;;;;
2020/02/13 09:35:50;;;;;;;3.85;1.75;;;;;;;11.31;73.19922;94990.59;;;;